CheckWX is a tool to help pilots better visualize weather data.  It is not intended as a substitute for an official pre-flight weather briefing.

17:43:01 UTC

KMFV METAR
Accomack County Airport
Melfa, Virginia, USA
Current

28 mins ago

KMFV 211715Z AUTO 30011KT 10SM CLR 34/25 A2991 RMK AO2 T03390252
Observed
Jul-21 @ 17:15 UTC
Wind
  • 300° at 11 KTS
Visibility
10 SM
Flight Rules
VFR
Cloud Levels
  • Clear skies
Temperature
34°C / 93°F
Dewpoint
25°C / 77°F
Heat Index
42°C / 107°F
Humidity
59%
Altimeter
29.91" Hg
Pressure
1012.92 hPa
Previous

48 mins ago

KMFV 211655Z AUTO 31006KT 10SM CLR 34/25 A2991 RMK AO2 T03350247
Observed
Jul-21 @ 16:55 UTC
Wind
  • 310° at 6 KTS
Visibility
10 SM
Flight Rules
VFR
Cloud Levels
  • Clear skies
Temperature
34°C / 93°F
Dewpoint
25°C / 77°F
Heat Index
42°C / 107°F
Humidity
59%
Altimeter
29.91" Hg
Pressure
1012.92 hPa
Previous

1 hour ago

KMFV 211635Z AUTO 32008KT 10SM CLR 33/25 A2991 RMK AO2 T03340249
Observed
Jul-21 @ 16:35 UTC
Wind
  • 320° at 8 KTS
Visibility
10 SM
Flight Rules
VFR
Cloud Levels
  • Clear skies
Temperature
33°C / 91°F
Dewpoint
25°C / 77°F
Heat Index
40°C / 104°F
Humidity
63%
Altimeter
29.91" Hg
Pressure
1012.92 hPa